Time;durP1;ratioP1;P1;durP2;ratioP2;P2;SDS_P1;SDS_P2;PMS_P1;PMS_P2;Temp;Humidity;BMP_temperature;BMP_pressure;BME280_temperature;BME280_humidity;BME280_pressure;Samples;Min_cycle;Max_cycle;Signal;HPM_P1;HPM_P2
2022/09/24 00:00:44;;;;;;;102.67;46.67;;;;;;;16.12;65.56;100908.59;4813683;29;120060;-72
2022/09/24 00:03:10;;;;;;;106.53;46.73;;;;;;;16.13;65.61;100910.13;4812546;29;119694;-72
2022/09/24 00:05:38;;;;;;;103.95;46.20;;;;;;;16.13;65.80;100910.13;4810986;29;119850;-71
2022/09/24 00:08:06;;;;;;;95.55;46.22;;;;;;;16.14;65.93;100906.09;4812853;29;119442;-72
2022/09/24 00:10:40;;;;;;;78.45;44.78;;;;;;;16.13;65.59;100902.59;4815012;29;120066;-72
2022/09/24 00:13:07;;;;;;;75.38;43.63;;;;;;;16.18;66.08;100914.97;4815324;29;119480;-72
2022/09/24 00:15:38;;;;;;;92.20;45.22;;;;;;;16.21;65.82;100911.22;4817254;29;119413;-73
2022/09/24 00:18:06;;;;;;;77.90;45.88;;;;;;;16.23;66.31;100906.72;4811288;29;120277;-73
2022/09/24 00:20:34;;;;;;;107.37;46.00;;;;;;;16.28;65.76;100908.03;4804673;29;119822;-72
2022/09/24 00:23:00;;;;;;;84.18;46.03;;;;;;;16.30;66.05;100908.31;4792116;29;121165;-73
2022/09/24 00:28:12;;;;;;;107.93;47.15;;;;;;;16.32;65.86;100905.06;4813495;29;119446;-72
2022/09/24 00:30:39;;;;;;;97.83;46.70;;;;;;;16.31;65.66;100895.22;4811367;29;120240;-73
2022/09/24 00:33:08;;;;;;;104.93;48.00;;;;;;;16.33;65.69;100907.38;4811994;29;120107;-73
2022/09/24 00:35:37;;;;;;;109.00;47.53;;;;;;;16.34;65.52;100900.59;4815663;29;120143;-72
2022/09/24 00:38:05;;;;;;;101.45;47.75;;;;;;;16.35;65.58;100896.56;4797349;29;120223;-73
2022/09/24 00:40:36;;;;;;;85.40;46.60;;;;;;;16.36;65.48;100895.31;4811310;29;120378;-71
2022/09/24 00:43:24;;;;;;;111.93;47.78;;;;;;;16.33;65.41;100893.53;4811022;29;120226;-72
2022/09/24 00:46:19;;;;;;;90.93;44.95;;;;;;;16.36;65.09;100889.78;4814031;29;119971;-72
2022/09/24 00:48:48;;;;;;;114.10;47.07;;;;;;;16.38;65.31;100889.31;4805808;29;119398;-72
2022/09/24 00:51:18;;;;;;;99.90;46.13;;;;;;;16.38;65.43;100886.53;4813853;29;119896;-72
2022/09/24 00:53:47;;;;;;;96.03;45.38;;;;;;;16.39;65.01;100891.56;4813303;29;119824;-73
2022/09/24 00:56:14;;;;;;;100.93;45.87;;;;;;;16.39;65.41;100886.03;4809159;29;119466;-73
2022/09/24 00:58:44;;;;;;;114.05;46.25;;;;;;;16.40;65.41;100881.25;4803690;29;121595;-72
2022/09/24 01:01:10;;;;;;;94.35;45.03;;;;;;;16.37;65.46;100871.16;4811704;29;120399;-72
2022/09/24 01:03:39;;;;;;;112.03;48.93;;;;;;;16.37;65.45;100877.47;4812506;29;119919;-71
2022/09/24 01:06:08;;;;;;;113.60;49.10;;;;;;;16.33;65.47;100876.16;4812337;29;119943;-71
2022/09/24 01:08:34;;;;;;;112.95;50.25;;;;;;;16.34;65.33;100877.69;4814259;29;120057;-74
2022/09/24 01:11:25;;;;;;;105.97;49.08;;;;;;;16.30;65.57;100872.31;4812463;29;119966;-72
2022/09/24 01:13:59;;;;;;;118.03;50.15;;;;;;;16.29;65.55;100876.34;4793222;29;119861;-73
2022/09/24 01:16:59;;;;;;;102.30;51.13;;;;;;;16.31;65.60;100870.31;4795417;29;120065;-72
2022/09/24 01:19:34;;;;;;;109.60;51.23;;;;;;;16.28;65.46;100867.28;4804743;29;119388;-72
2022/09/24 01:22:08;;;;;;;117.95;50.33;;;;;;;16.28;65.26;100869.28;4815702;29;120150;-72
2022/09/24 01:25:20;;;;;;;106.75;51.05;;;;;;;16.27;65.22;100871.28;4809036;29;122514;-72
2022/09/24 01:28:17;;;;;;;114.82;50.42;;;;;;;16.28;65.49;100875.59;4773434;29;119823;-72
2022/09/24 01:30:46;;;;;;;93.30;47.35;;;;;;;16.27;64.88;100876.84;4806736;29;120429;-72
2022/09/24 01:33:18;;;;;;;117.57;51.85;;;;;;;16.28;65.87;100860.97;4811255;29;121375;-72
2022/09/24 01:35:49;;;;;;;101.33;48.50;;;;;;;16.31;65.55;100871.09;4811030;29;120674;-72
2022/09/24 01:38:23;;;;;;;109.68;49.90;;;;;;;16.30;65.58;100866.78;4811676;29;120082;-72
2022/09/24 01:40:53;;;;;;;103.90;48.58;;;;;;;16.35;65.81;100874.44;4805570;29;121958;-72
2022/09/24 01:43:23;;;;;;;100.03;48.10;;;;;;;16.35;65.26;100868.88;4809949;29;119880;-72
2022/09/24 01:45:50;;;;;;;94.07;49.40;;;;;;;16.36;65.28;100864.13;4815166;29;119534;-72
2022/09/24 01:48:20;;;;;;;107.32;50.00;;;;;;;16.36;65.26;100867.63;4794626;29;119520;-71
2022/09/24 01:51:07;;;;;;;84.93;48.17;;;;;;;16.37;65.55;100860.84;4811366;29;119496;-73
2022/09/24 01:53:45;;;;;;;83.03;45.07;;;;;;;16.39;65.35;100863.91;4810785;29;120379;-71
2022/09/24 01:56:20;;;;;;;97.05;49.97;;;;;;;16.43;65.69;100863.69;4806600;29;120157;-73
2022/09/24 01:59:12;;;;;;;117.60;50.97;;;;;;;16.45;65.68;100856.41;4804139;29;120309;-71
2022/09/24 02:01:44;;;;;;;115.88;51.90;;;;;;;16.43;65.50;100858.13;4812771;29;120268;-72
2022/09/24 02:04:18;;;;;;;91.82;53.08;;;;;;;16.42;65.58;100857.38;4812434;29;119979;-72
2022/09/24 02:06:49;;;;;;;120.18;56.88;;;;;;;16.39;65.83;100855.59;4808630;29;120245;-71
2022/09/24 02:09:33;;;;;;;110.10;57.00;;;;;;;16.42;65.93;100856.63;4816640;29;119984;-71
2022/09/24 02:12:10;;;;;;;125.35;56.95;;;;;;;16.40;66.40;100859.88;4809770;29;119926;-71
2022/09/24 02:14:46;;;;;;;118.50;56.80;;;;;;;16.40;65.96;100857.09;4807684;29;120652;-72
2022/09/24 02:17:13;;;;;;;103.93;54.70;;;;;;;16.38;65.42;100851.31;4804037;29;119975;-72
2022/09/24 02:19:43;;;;;;;105.50;58.20;;;;;;;16.39;66.16;100854.84;4812332;29;120050;-71
2022/09/24 02:22:13;;;;;;;115.38;56.95;;;;;;;16.39;65.95;100846.53;4810292;29;120170;-73
2022/09/24 02:24:43;;;;;;;130.47;59.93;;;;;;;16.38;65.84;100850.53;4811618;29;119401;-71
2022/09/24 02:27:09;;;;;;;112.22;58.55;;;;;;;16.36;66.08;100845.50;4812256;29;119794;-72
2022/09/24 02:29:35;;;;;;;106.82;58.75;;;;;;;16.35;66.51;100838.44;4807656;29;119968;-71
2022/09/24 02:32:03;;;;;;;103.05;57.00;;;;;;;16.35;66.22;100845.97;4810923;29;119652;-72
2022/09/24 02:34:40;;;;;;;110.30;60.13;;;;;;;16.35;66.15;100846.75;4800618;29;120098;-73
2022/09/24 02:37:11;;;;;;;111.70;64.40;;;;;;;16.34;66.47;100850.75;4810085;29;120391;-73
2022/09/24 02:39:37;;;;;;;109.00;63.73;;;;;;;16.33;66.18;100852.00;4800664;29;119746;-73
2022/09/24 02:42:04;;;;;;;92.73;56.67;;;;;;;16.33;66.00;100846.47;4811409;29;120139;-72
2022/09/24 02:44:35;;;;;;;107.77;58.90;;;;;;;16.33;66.20;100848.47;4810726;29;119737;-71
2022/09/24 02:47:01;;;;;;;126.00;61.85;;;;;;;16.31;66.32;100840.63;4805656;29;120423;-70
2022/09/24 02:49:27;;;;;;;103.60;61.33;;;;;;;16.34;66.00;100838.91;4806761;29;120635;-74
2022/09/24 02:51:54;;;;;;;130.35;63.70;;;;;;;16.31;66.46;100840.63;4813827;29;120306;-72
2022/09/24 02:54:21;;;;;;;103.43;60.65;;;;;;;16.28;66.31;100836.84;4806562;29;120397;-77
2022/09/24 02:56:47;;;;;;;110.18;63.92;;;;;;;16.26;66.18;100841.34;4772288;29;120029;-72
2022/09/24 02:59:15;;;;;;;120.55;67.10;;;;;;;16.21;66.70;100837.25;4808910;29;119947;-72
2022/09/24 03:01:41;;;;;;;119.50;69.40;;;;;;;16.20;66.42;100829.44;4787203;29;121441;-72
2022/09/24 03:04:07;;;;;;;127.63;66.97;;;;;;;16.17;66.26;100836.72;4794968;29;119836;-75
2022/09/24 03:06:36;;;;;;;120.60;68.13;;;;;;;16.15;66.59;100841.97;4810362;29;120122;-71
2022/09/24 03:09:02;;;;;;;120.13;67.00;;;;;;;16.13;66.81;100832.63;4811108;29;119907;-72
2022/09/24 03:11:30;;;;;;;104.67;64.50;;;;;;;16.13;66.99;100829.88;4810493;28;120182;-72
2022/09/24 03:13:55;;;;;;;103.00;62.58;;;;;;;16.14;66.93;100828.63;4812222;29;120234;-71
2022/09/24 03:16:25;;;;;;;115.32;66.43;;;;;;;16.16;67.06;100839.97;4804374;29;119652;-73
2022/09/24 03:18:50;;;;;;;109.82;67.07;;;;;;;16.17;67.05;100841.50;4793945;29;121129;-72
2022/09/24 03:21:19;;;;;;;116.40;64.93;;;;;;;16.15;66.86;100843.97;4812415;29;120178;-72
2022/09/24 03:23:45;;;;;;;119.10;66.90;;;;;;;16.12;66.80;100842.19;4811689;29;120185;-72
2022/09/24 03:26:11;;;;;;;94.90;63.45;;;;;;;16.13;66.41;100843.72;4810344;29;119970;-72
2022/09/24 03:28:37;;;;;;;122.83;64.87;;;;;;;16.13;66.95;100840.94;4811276;29;121977;-72
2022/09/24 03:31:29;;;;;;;122.18;65.88;;;;;;;16.12;67.06;100840.19;4779690;29;119711;-71
2022/09/24 03:33:56;;;;;;;120.53;67.15;;;;;;;16.14;66.85;100836.94;4790002;29;122426;-72
2022/09/24 03:36:24;;;;;;;122.43;67.85;;;;;;;16.10;66.80;100839.91;4816833;29;119951;-72
2022/09/24 03:38:55;;;;;;;121.32;67.95;;;;;;;16.10;67.13;100836.38;4811229;29;122428;-73
2022/09/24 03:41:22;;;;;;;110.13;63.60;;;;;;;16.09;66.95;100835.63;4815664;29;119808;-72
2022/09/24 03:43:47;;;;;;;109.97;64.10;;;;;;;16.09;66.81;100832.06;4812882;29;119994;-72
2022/09/24 03:46:14;;;;;;;121.38;65.18;;;;;;;16.09;66.80;100830.09;4814353;29;119992;-72
2022/09/24 03:48:40;;;;;;;109.15;66.13;;;;;;;16.09;66.36;100834.84;4814090;29;119619;-72
2022/09/24 03:51:11;;;;;;;116.23;68.83;;;;;;;16.07;66.71;100832.56;4812959;29;119560;-72
2022/09/24 03:53:38;;;;;;;128.00;66.77;;;;;;;16.07;67.02;100826.25;4809769;29;119653;-71
2022/09/24 03:56:06;;;;;;;123.50;71.53;;;;;;;16.06;66.85;100819.97;4805651;29;119933;-71
2022/09/24 03:58:37;;;;;;;128.02;71.65;;;;;;;16.05;67.24;100828.75;4799807;29;119776;-71
2022/09/24 04:01:05;;;;;;;136.10;71.30;;;;;;;16.07;67.15;100831.78;4801028;29;119673;-72
2022/09/24 04:03:31;;;;;;;117.13;68.55;;;;;;;16.09;66.91;100823.75;4813072;29;119701;-71
2022/09/24 04:05:57;;;;;;;118.13;65.80;;;;;;;16.08;66.94;100820.25;4804970;29;121202;-72
2022/09/24 04:08:22;;;;;;;112.97;68.40;;;;;;;16.11;67.10;100822.06;4813998;29;119638;-73
2022/09/24 04:10:49;;;;;;;131.77;72.67;;;;;;;16.10;67.05;100820.53;4807097;29;119979;-73
2022/09/24 04:13:17;;;;;;;146.55;74.32;;;;;;;16.09;67.16;100829.28;4811540;29;119882;-72
2022/09/24 04:15:42;;;;;;;140.27;72.10;;;;;;;16.09;66.72;100827.31;4809288;29;120018;-72
2022/09/24 04:18:11;;;;;;;133.57;72.20;;;;;;;16.05;66.59;100823.22;4812712;29;120078;-72
2022/09/24 04:20:37;;;;;;;133.63;70.60;;;;;;;16.08;66.77;100823.00;4813631;29;119457;-71
2022/09/24 04:23:02;;;;;;;111.67;66.83;;;;;;;16.11;66.68;100835.13;4813982;29;120150;-72
2022/09/24 04:25:31;;;;;;;118.80;67.22;;;;;;;16.10;66.79;100826.06;4812423;29;119650;-72
2022/09/24 04:28:02;;;;;;;126.60;68.72;;;;;;;16.11;66.90;100827.59;4808988;29;119841;-71
2022/09/24 04:30:30;;;;;;;134.27;73.10;;;;;;;16.12;67.13;100826.34;4811960;29;119991;-72
2022/09/24 04:32:59;;;;;;;99.90;66.80;;;;;;;16.14;66.75;100828.63;4810556;29;119822;-72
2022/09/24 04:35:30;;;;;;;113.57;68.80;;;;;;;16.17;66.48;100836.72;4807851;29;121497;-74
2022/09/24 04:37:58;;;;;;;128.50;70.47;;;;;;;16.19;66.42;100831.44;4813793;29;119971;-72
2022/09/24 04:40:24;;;;;;;124.28;72.05;;;;;;;16.21;66.85;100825.44;4811795;29;119874;-73
2022/09/24 04:42:52;;;;;;;151.57;78.03;;;;;;;16.21;67.05;100828.19;4791670;29;119824;-72
2022/09/24 04:45:32;;;;;;;152.37;77.40;;;;;;;16.21;67.04;100828.97;4808539;29;119677;-72
2022/09/24 04:47:58;;;;;;;144.47;80.40;;;;;;;16.22;67.29;100826.94;4812471;29;120807;-73
2022/09/24 04:50:26;;;;;;;135.55;79.68;;;;;;;16.19;67.22;100822.38;4808199;29;119930;-72
2022/09/24 04:53:12;;;;;;;135.30;81.03;;;;;;;16.16;66.96;100818.59;4799958;29;120500;-71
2022/09/24 04:55:38;;;;;;;125.57;80.90;;;;;;;16.14;66.78;100825.88;4804321;29;119711;-75
2022/09/24 04:58:04;;;;;;;138.60;81.50;;;;;;;16.12;67.51;100822.81;4804671;29;119749;-72
2022/09/24 05:00:31;;;;;;;150.93;83.67;;;;;;;16.11;67.08;100821.28;4813093;29;119971;-72
2022/09/24 05:02:58;;;;;;;139.25;82.43;;;;;;;16.13;67.53;100830.63;4811500;29;121482;-72
2022/09/24 05:05:25;;;;;;;153.32;81.40;;;;;;;16.13;67.16;100832.63;4811949;29;120097;-72
2022/09/24 05:07:51;;;;;;;122.47;77.47;;;;;;;16.10;66.94;100822.53;4806766;29;120284;-72
2022/09/24 05:10:17;;;;;;;114.13;76.03;;;;;;;16.11;67.01;100832.38;4807508;29;119597;-73
2022/09/24 05:12:43;;;;;;;148.07;76.63;;;;;;;16.11;66.94;100832.38;4796942;29;121714;-71
2022/09/24 05:15:09;;;;;;;130.23;76.37;;;;;;;16.12;67.15;100837.41;4801021;29;120179;-73
2022/09/24 05:17:38;;;;;;;131.18;74.90;;;;;;;16.14;66.82;100843.22;4809938;29;120296;-72
2022/09/24 05:20:06;;;;;;;130.23;73.67;;;;;;;16.16;67.06;100834.44;4809247;29;120279;-74
2022/09/24 05:22:31;;;;;;;107.18;71.32;;;;;;;16.18;67.33;100838.22;4797055;29;121850;-72
2022/09/24 05:24:57;;;;;;;137.02;77.78;;;;;;;16.19;67.33;100839.75;4812518;29;119908;-72
2022/09/24 05:27:23;;;;;;;146.45;82.35;;;;;;;16.20;67.06;100835.75;4810190;29;119682;-71
2022/09/24 05:29:49;;;;;;;138.35;81.43;;;;;;;16.24;67.62;100838.28;4804019;29;119543;-73
2022/09/24 05:32:18;;;;;;;145.63;82.77;;;;;;;16.25;67.29;100839.81;4802412;29;122217;-72
2022/09/24 05:34:45;;;;;;;148.33;80.53;;;;;;;16.26;67.33;100831.03;4812913;29;119761;-71
2022/09/24 05:37:12;;;;;;;148.57;81.20;;;;;;;16.27;67.39;100835.31;4807307;29;120048;-73
2022/09/24 05:39:38;;;;;;;147.02;82.43;;;;;;;16.26;67.73;100838.56;4814712;29;119655;-72
2022/09/24 05:42:04;;;;;;;141.60;85.63;;;;;;;16.28;67.65;100844.38;4800946;29;119564;-72
2022/09/24 05:44:30;;;;;;;160.55;86.85;;;;;;;16.28;67.41;100834.06;4812468;29;119805;-72
2022/09/24 05:46:56;;;;;;;160.40;87.00;;;;;;;16.28;67.51;100838.84;4814835;29;120013;-72
2022/09/24 05:49:25;;;;;;;161.18;86.70;;;;;;;16.27;67.44;100835.31;4802942;29;119613;-72
2022/09/24 05:51:51;;;;;;;145.90;83.57;;;;;;;16.27;67.42;100842.84;4808592;29;119980;-72
2022/09/24 05:54:18;;;;;;;149.13;81.50;;;;;;;16.28;67.24;100836.06;4796979;29;119901;-72
2022/09/24 05:56:44;;;;;;;119.90;81.87;;;;;;;16.25;67.28;100839.81;4809479;29;119609;-73
2022/09/24 05:59:10;;;;;;;153.13;84.68;;;;;;;16.21;67.42;100839.28;4814431;29;121105;-72
2022/09/24 06:01:36;;;;;;;155.02;84.82;;;;;;;16.23;67.50;100845.06;4806074;29;120375;-72
2022/09/24 06:04:10;;;;;;;150.18;85.53;;;;;;;16.22;67.84;100844.31;4795634;29;119931;-72
2022/09/24 06:06:36;;;;;;;136.87;82.57;;;;;;;16.23;67.88;100845.06;4807137;29;119756;-73
2022/09/24 06:09:02;;;;;;;149.97;83.87;;;;;;;16.26;67.69;100849.63;4818075;29;120570;-72
2022/09/24 06:11:33;;;;;;;144.63;84.18;;;;;;;16.28;67.59;100856.22;4814824;29;119902;-72
2022/09/24 06:14:02;;;;;;;144.52;81.38;;;;;;;16.30;67.68;100858.50;4814310;29;121229;-72
2022/09/24 06:16:27;;;;;;;146.65;83.88;;;;;;;16.34;67.82;100844.47;4793809;29;119905;-71
2022/09/24 06:18:53;;;;;;;142.63;82.55;;;;;;;16.39;67.99;100852.81;4805646;29;119607;-72
2022/09/24 06:21:19;;;;;;;128.73;80.05;;;;;;;16.35;68.09;100849.50;4815667;29;120693;-71
2022/09/24 06:23:45;;;;;;;155.10;81.90;;;;;;;16.48;67.95;100858.19;4812922;29;119981;-72
2022/09/24 06:26:12;;;;;;;171.80;88.33;;;;;;;16.52;67.99;100855.97;4811131;29;119949;-74
2022/09/24 06:28:39;;;;;;;132.45;78.75;;;;;;;16.55;67.29;100855.00;4808278;29;120234;-72
2022/09/24 06:31:06;;;;;;;143.98;84.35;;;;;;;16.60;67.59;100855.56;4809973;29;120031;-72
2022/09/24 06:34:01;;;;;;;170.35;89.65;;;;;;;16.64;68.02;100851.31;4795846;29;119581;-74
2022/09/24 06:36:28;;;;;;;149.90;89.45;;;;;;;16.68;67.26;100856.69;4811436;29;120469;-72
2022/09/24 06:38:53;;;;;;;155.07;88.70;;;;;;;16.71;67.31;100853.69;4811379;29;120076;-71
2022/09/24 06:41:26;;;;;;;159.32;86.90;;;;;;;16.72;67.46;100857.22;4809505;29;120292;-72
2022/09/24 06:43:53;;;;;;;171.23;87.93;;;;;;;16.78;67.18;100864.31;4809572;29;119565;-71
2022/09/24 06:46:21;;;;;;;144.73;83.25;;;;;;;16.81;67.24;100859.84;4809161;29;119553;-73
2022/09/24 06:48:53;;;;;;;140.23;82.50;;;;;;;16.83;67.16;100860.09;4810642;29;119485;-73
2022/09/24 06:51:19;;;;;;;143.02;83.32;;;;;;;16.86;67.23;100859.13;4816095;29;119379;-74
2022/09/24 06:53:51;;;;;;;109.47;79.75;;;;;;;16.92;66.88;100862.69;4805289;29;120393;-72
2022/09/24 06:56:17;;;;;;;161.73;88.97;;;;;;;16.97;67.45;100867.53;4810621;29;120017;-72
2022/09/24 06:58:43;;;;;;;147.02;87.97;;;;;;;17.01;67.42;100872.84;4813793;29;120084;-72
2022/09/24 07:01:12;;;;;;;175.93;92.63;;;;;;;17.07;67.49;100862.59;4813911;29;120238;-71
2022/09/24 07:03:38;;;;;;;154.30;87.70;;;;;;;17.15;67.61;100871.97;4812061;29;120232;-73
2022/09/24 07:06:06;;;;;;;145.83;87.23;;;;;;;17.18;67.37;100866.19;4814766;29;120147;-73
2022/09/24 07:08:32;;;;;;;106.30;81.73;;;;;;;17.29;67.61;100875.88;4809845;29;120481;-73
2022/09/24 07:11:01;;;;;;;121.18;84.82;;;;;;;17.32;67.47;100866.56;4813755;29;120156;-71
2022/09/24 07:13:26;;;;;;;173.02;86.55;;;;;;;17.37;66.99;100874.16;4814632;29;120033;-73
2022/09/24 07:15:52;;;;;;;133.50;83.73;;;;;;;17.36;66.97;100867.84;4813982;29;119622;-74
2022/09/24 07:18:37;;;;;;;138.23;85.68;;;;;;;17.43;67.17;100877.72;4807993;29;119970;-73
2022/09/24 07:21:03;;;;;;;123.63;82.43;;;;;;;17.45;66.74;100878.75;4812878;29;120236;-74
2022/09/24 07:23:29;;;;;;;180.97;87.63;;;;;;;17.44;67.36;100876.47;4811410;29;120237;-76
2022/09/24 07:25:56;;;;;;;151.65;88.82;;;;;;;17.44;66.87;100871.69;4811993;29;119970;-74
2022/09/24 07:28:22;;;;;;;168.27;91.78;;;;;;;17.52;66.92;100879.59;4811557;29;119595;-74
2022/09/24 07:30:55;;;;;;;125.57;85.93;;;;;;;17.50;66.63;100874.50;4812169;29;120054;-75
2022/09/24 07:33:21;;;;;;;118.65;84.85;;;;;;;17.47;66.27;100881.78;4825402;29;119498;-74
2022/09/24 07:35:46;;;;;;;137.00;86.80;;;;;;;17.48;66.38;100883.31;4814446;29;119908;-76
2022/09/24 07:38:12;;;;;;;149.50;89.00;;;;;;;17.54;66.75;100888.16;4796240;29;120990;-74
2022/09/24 07:40:38;;;;;;;130.15;84.35;;;;;;;17.53;66.45;100892.94;4811453;29;119671;-74
2022/09/24 07:43:05;;;;;;;110.57;83.35;;;;;;;17.57;66.40;100889.94;4813607;29;119669;-75
2022/09/24 07:45:32;;;;;;;143.18;88.32;;;;;;;17.59;67.00;100893.75;4811524;29;119829;-74
2022/09/24 07:48:03;;;;;;;127.80;87.43;;;;;;;17.61;66.92;100896.78;4811387;29;119751;-73
2022/09/24 07:50:31;;;;;;;168.90;90.50;;;;;;;17.64;67.10;100895.78;4813774;29;119825;-75
2022/09/24 07:52:57;;;;;;;130.40;84.30;;;;;;;17.66;66.82;100903.63;4810044;29;119870;-76
2022/09/24 07:55:24;;;;;;;159.30;87.87;;;;;;;17.65;67.05;100902.84;4809826;29;120153;-74
2022/09/24 07:57:54;;;;;;;161.63;91.10;;;;;;;17.67;66.99;100899.59;4798877;29;119651;-74
2022/09/24 08:00:22;;;;;;;179.60;92.38;;;;;;;17.67;66.94;100900.38;4811298;29;120007;-74
2022/09/24 08:02:49;;;;;;;153.10;91.05;;;;;;;17.67;67.27;100897.59;4813964;29;120723;-73
2022/09/24 08:05:16;;;;;;;180.45;90.68;;;;;;;17.70;67.37;100904.16;4795468;29;120987;-74
2022/09/24 08:07:55;;;;;;;171.33;90.53;;;;;;;17.68;67.21;100913.00;4806085;29;120116;-77
2022/09/24 08:10:27;;;;;;;139.87;87.27;;;;;;;17.69;67.11;100906.19;4808858;29;119898;-75
2022/09/24 08:12:53;;;;;;;144.60;85.95;;;;;;;17.68;66.85;100918.53;4778743;29;119944;-74
2022/09/24 08:15:24;;;;;;;166.63;85.70;;;;;;;17.66;67.15;100909.91;4816993;28;120027;-74
2022/09/24 08:17:50;;;;;;;146.07;87.75;;;;;;;17.69;67.37;100911.72;4792434;29;121981;-74
2022/09/24 08:20:17;;;;;;;161.52;91.18;;;;;;;17.71;67.35;100916.78;4812638;29;119867;-71
2022/09/24 08:22:43;;;;;;;162.68;87.32;;;;;;;17.75;67.43;100915.31;4809211;29;119558;-71
2022/09/24 08:25:09;;;;;;;168.95;87.10;;;;;;;17.76;67.22;100916.09;4806415;29;120179;-71
2022/09/24 08:27:36;;;;;;;187.13;89.43;;;;;;;17.82;67.39;100921.66;4806370;29;120381;-71
2022/09/24 08:30:05;;;;;;;128.37;84.67;;;;;;;17.82;66.94;100913.34;4808153;29;119983;-75
2022/09/24 08:32:31;;;;;;;161.40;88.63;;;;;;;17.86;67.29;100914.63;4800391;29;120133;-72
2022/09/24 08:34:59;;;;;;;153.77;88.97;;;;;;;17.91;67.52;100913.88;4799876;29;120784;-71
2022/09/24 08:37:27;;;;;;;172.63;88.50;;;;;;;17.96;67.61;100910.38;4816353;28;119959;-72
2022/09/24 08:39:53;;;;;;;154.60;84.68;;;;;;;18.03;67.44;100911.97;4797882;29;122334;-72
2022/09/24 08:42:48;;;;;;;193.90;87.55;;;;;;;18.14;67.51;100914.78;4793468;29;120200;-73
2022/09/24 08:48:14;;;;;;;186.67;83.60;;;;;;;18.26;67.15;100919.13;4805823;29;120090;-72
2022/09/24 08:50:52;;;;;;;206.40;86.63;;;;;;;18.32;67.28;100922.69;4806715;29;120158;-72
2022/09/24 08:53:25;;;;;;;158.80;79.78;;;;;;;18.37;67.26;100924.72;4805109;29;120547;-71
2022/09/24 08:56:10;;;;;;;131.53;77.20;;;;;;;18.40;67.12;100915.41;4806098;29;120592;-73
2022/09/24 08:58:48;;;;;;;173.57;78.15;;;;;;;18.45;67.36;100921.47;4810415;29;120445;-71
2022/09/24 09:01:20;;;;;;;134.15;75.35;;;;;;;18.45;66.87;100927.03;4806290;29;120898;-71
2022/09/24 09:04:16;;;;;;;165.85;79.18;;;;;;;18.48;67.25;100926.06;4801817;29;119984;-71
2022/09/24 09:06:57;;;;;;;154.90;78.43;;;;;;;18.49;67.64;100927.56;4798657;29;120194;-72
2022/09/24 09:09:49;;;;;;;176.48;78.15;;;;;;;18.53;67.55;100933.63;4797086;29;120019;-72
2022/09/24 09:12:54;;;;;;;175.07;78.47;;;;;;;18.63;68.04;100921.81;4786565;29;120690;-72
2022/09/24 09:15:34;;;;;;;174.90;78.47;;;;;;;18.74;69.04;100923.13;4783420;29;120698;-73
2022/09/24 09:18:05;;;;;;;173.85;73.30;;;;;;;18.90;68.36;100925.94;4802818;29;119818;-76
2022/09/24 09:20:40;;;;;;;165.63;68.20;;;;;;;19.02;68.04;100919.13;4801714;29;120223;-71
2022/09/24 09:23:25;;;;;;;128.90;70.55;;;;;;;19.12;66.95;100927.22;4800783;29;120116;-76
2022/09/24 09:25:54;;;;;;;171.00;73.18;;;;;;;19.18;66.80;100926.00;4798550;29;120439;-75
2022/09/24 09:28:28;;;;;;;158.17;70.47;;;;;;;19.24;66.48;100928.78;4815451;28;120287;-75
2022/09/24 09:31:26;;;;;;;127.53;69.65;;;;;;;19.31;66.27;100923.47;4790783;29;120175;-74
2022/09/24 09:34:20;;;;;;;152.10;72.17;;;;;;;19.40;66.46;100930.81;4801193;29;120035;-72
2022/09/24 09:37:25;;;;;;;168.13;70.60;;;;;;;19.47;66.35;100923.97;4780429;29;120406;-72
2022/09/24 09:40:31;;;;;;;177.75;72.47;;;;;;;19.49;65.68;100922.19;4785069;29;120378;-72
2022/09/24 09:43:10;;;;;;;146.90;70.40;;;;;;;19.49;65.51;100927.75;4797528;29;120530;-71
2022/09/24 09:45:49;;;;;;;148.23;69.37;;;;;;;19.53;65.41;100925.50;4799701;29;120440;-73
2022/09/24 09:48:18;;;;;;;176.07;70.00;;;;;;;19.53;66.17;100922.72;4799401;29;120341;-74
2022/09/24 09:50:48;;;;;;;179.95;71.88;;;;;;;19.57;66.04;100933.59;4799558;29;120196;-74
2022/09/24 09:53:23;;;;;;;162.77;70.38;;;;;;;19.57;65.66;100934.34;4804313;29;119829;-72
2022/09/24 09:55:53;;;;;;;173.05;74.22;;;;;;;19.61;65.90;100934.84;4799823;29;119810;-75
2022/09/24 09:58:23;;;;;;;176.00;70.93;;;;;;;19.66;66.06;100935.38;4801087;29;119875;-71
2022/09/24 10:00:49;;;;;;;177.20;70.20;;;;;;;19.71;66.02;100931.81;4802275;29;120345;-72
2022/09/24 10:03:33;;;;;;;179.32;70.18;;;;;;;19.73;65.86;100929.28;4799044;29;120269;-73
2022/09/24 10:06:05;;;;;;;151.65;69.13;;;;;;;19.79;65.47;100938.38;4799115;29;120440;-75
2022/09/24 10:08:32;;;;;;;157.03;67.20;;;;;;;19.80;64.96;100928.75;4800883;29;120684;-73
2022/09/24 10:11:00;;;;;;;141.90;70.67;;;;;;;19.83;65.75;100922.19;4803589;29;120310;-72
2022/09/24 10:13:27;;;;;;;103.78;63.28;;;;;;;19.87;64.60;100933.81;4800419;29;120355;-72
2022/09/24 10:15:59;;;;;;;131.57;62.75;;;;;;;19.87;64.14;100931.03;4801748;29;123397;-71
2022/09/24 10:18:36;;;;;;;155.15;65.32;;;;;;;19.89;64.93;100926.47;4782914;29;119925;-72
2022/09/24 10:21:08;;;;;;;156.50;63.37;;;;;;;19.99;64.59;100932.53;4802433;29;120439;-74
2022/09/24 10:23:36;;;;;;;183.07;68.57;;;;;;;20.05;64.57;100935.28;4799872;29;120952;-72
2022/09/24 10:26:03;;;;;;;184.68;68.50;;;;;;;20.11;65.47;100930.47;4799474;29;119555;-73
2022/09/24 10:31:22;;;;;;;129.93;62.00;;;;;;;20.31;64.95;100921.03;4795099;29;119801;-73
2022/09/24 10:33:53;;;;;;;165.32;64.32;;;;;;;20.41;64.71;100925.84;4798681;29;120530;-73
2022/09/24 10:36:28;;;;;;;140.35;57.60;;;;;;;20.34;64.51;100925.56;4797833;29;120452;-73
2022/09/24 10:39:23;;;;;;;134.95;55.22;;;;;;;20.32;64.03;100917.72;4804453;29;120584;-76
2022/09/24 10:41:54;;;;;;;111.75;51.55;;;;;;;20.29;64.21;100924.31;4794084;29;120138;-72
2022/09/24 10:44:31;;;;;;;78.63;50.55;;;;;;;20.27;63.26;100929.66;4799927;29;119594;-73
2022/09/24 10:47:19;;;;;;;141.63;52.35;;;;;;;20.21;63.80;100924.13;4802353;29;119612;-72
2022/09/24 10:50:24;;;;;;;161.10;52.70;;;;;;;20.19;63.87;100926.66;4799063;29;120108;-72
2022/09/24 10:52:52;;;;;;;80.78;50.85;;;;;;;20.15;63.93;100926.16;4797582;29;120037;-72
2022/09/24 10:55:30;;;;;;;122.05;52.67;;;;;;;20.14;64.04;100930.22;4798968;29;120050;-71
2022/09/24 10:58:05;;;;;;;101.03;48.28;;;;;;;20.11;63.82;100927.69;4801488;29;120389;-72
2022/09/24 11:01:06;;;;;;;134.82;46.78;;;;;;;20.06;63.89;100929.22;4800186;29;119648;-76
2022/09/24 11:03:42;;;;;;;147.27;46.80;;;;;;;20.02;64.15;100928.72;4771025;29;120617;-72
2022/09/24 11:06:14;;;;;;;98.55;41.25;;;;;;;20.02;62.99;100931.50;4799745;29;120013;-71
2022/09/24 11:09:03;;;;;;;117.13;40.80;;;;;;;19.97;63.51;100921.16;4799975;29;120017;-72
2022/09/24 11:11:40;;;;;;;146.90;41.38;;;;;;;19.95;63.72;100925.72;4787589;29;120158;-71
2022/09/24 11:14:34;;;;;;;149.30;40.13;;;;;;;19.94;63.12;100927.72;4800632;29;120048;-72
2022/09/24 11:17:21;;;;;;;153.25;38.50;;;;;;;19.90;62.92;100922.44;4797382;29;119872;-72
2022/09/24 11:20:02;;;;;;;110.45;31.42;;;;;;;19.84;62.83;100932.81;4799010;29;120153;-73
2022/09/24 11:22:49;;;;;;;133.60;30.83;;;;;;;19.80;63.42;100928.75;4799173;29;119923;-74